Lester, Iowa
Current Conditions -  °F | °C
As of 10:34 PM on Friday 24 Oct 2014 (Local Time) from KLYV Reporting Station
Clear Clear  
Wind Chill: 52°   Ceiling: Unl
Heat Index: 52°   Visibility: 10mi
Dew Point: 41°   Wind: 0mph
Humidity: 67%   Direction: NA
Pressure: 29.98"   Gusts: NA
Location:  43.44°N, 96.33°W
Report Text: KLYV 250334Z AUTO 00000KT 10SM CLR 11/05 A2998 RMK AO2
Loading
Personal Weather Stations






























Interactive Weather Map
Tropical Storm Tracking
New forecast layout! Learn more

10-Day Weather Forecast

Advertisements
Track Severe Weather on mobile